createdAt,value
2018-11-14T00:00:40.710Z,23.75
2018-11-14T00:03:19.469Z,34.25
2018-11-14T00:06:03.297Z,23.45
2018-11-14T00:08:33.643Z,17.90
2018-11-14T00:11:07.638Z,27.17
2018-11-14T00:13:38.413Z,18.80
2018-11-14T00:16:07.473Z,23.32
2018-11-14T00:18:36.615Z,18.05
2018-11-14T00:21:06.660Z,23.65
2018-11-14T00:23:43.854Z,18.85
2018-11-14T00:26:13.529Z,23.70
2018-11-14T00:28:42.454Z,22.85
2018-11-14T00:31:13.873Z,24.12
2018-11-14T00:33:54.649Z,17.90
2018-11-14T00:36:27.307Z,20.25
2018-11-14T00:39:01.923Z,27.77
2018-11-14T00:41:36.435Z,24.15
2018-11-14T00:44:11.889Z,24.60
2018-11-14T00:46:54.124Z,15.85
2018-11-14T00:49:27.149Z,20.25
2018-11-14T00:52:14.028Z,22.25
2018-11-14T00:54:42.593Z,23.80
2018-11-14T00:57:11.498Z,26.50
2018-11-14T00:59:40.048Z,26.45
2018-11-14T01:02:08.613Z,27.48
2018-11-14T01:04:37.478Z,30.32
2018-11-14T01:07:06.765Z,20.15
2018-11-14T01:09:35.434Z,25.77
2018-11-14T01:12:04.412Z,36.42
2018-11-14T01:14:33.323Z,27.48
2018-11-14T01:17:03.164Z,30.82
2018-11-14T01:19:33.069Z,34.23
2018-11-14T01:22:01.818Z,32.48
2018-11-14T01:24:30.592Z,25.40
2018-11-14T01:26:59.168Z,35.98
2018-11-14T01:29:27.761Z,29.90
2018-11-14T01:31:56.748Z,26.40
2018-11-14T01:34:25.271Z,29.35
2018-11-14T01:36:54.463Z,26.15
2018-11-14T01:39:23.117Z,31.70
2018-11-14T01:41:51.841Z,28.52
2018-11-14T01:44:20.382Z,32.65
2018-11-14T01:46:49.116Z,29.12
2018-11-14T01:49:17.601Z,30.68
2018-11-14T01:51:47.822Z,24.12
2018-11-14T01:54:17.073Z,23.80
2018-11-14T01:56:46.735Z,31.15
2018-11-14T01:59:15.186Z,39.05
2018-11-14T02:01:44.596Z,33.42
2018-11-14T02:04:13.397Z,30.00
2018-11-14T02:06:44.126Z,25.35
2018-11-14T02:09:22.761Z,39.75
2018-11-14T02:11:54.650Z,25.70
2018-11-14T02:14:28.822Z,39.18
2018-11-14T02:20:00.708Z,30.75
2018-11-14T02:25:21.024Z,37.50
2018-11-14T02:27:50.604Z,32.65
2018-11-14T02:30:25.756Z,43.73
2018-11-14T02:32:59.203Z,35.58
2018-11-14T02:35:27.652Z,35.78
2018-11-14T02:37:58.822Z,43.23
2018-11-14T02:40:27.415Z,43.83
2018-11-14T02:42:56.200Z,45.52
2018-11-14T02:45:29.815Z,45.23
2018-11-14T02:48:26.626Z,45.67
2018-11-14T02:54:04.304Z,54.15
2018-11-14T02:56:49.106Z,46.68
2018-11-14T02:59:33.171Z,42.35
2018-11-14T03:02:09.009Z,47.75
2018-11-14T03:04:54.720Z,46.90
2018-11-14T03:07:45.758Z,48.87
2018-11-14T03:10:18.615Z,45.33
2018-11-14T03:15:39.462Z,45.00
2018-11-14T03:21:54.200Z,56.53
2018-11-14T03:30:12.162Z,59.88
2018-11-14T03:41:30.872Z,64.75
2018-11-14T03:44:09.218Z,68.37
2018-11-14T03:51:57.382Z,64.50
2018-11-14T03:57:17.479Z,71.15
2018-11-14T03:59:49.254Z,94.40
2018-11-14T04:02:18.346Z,59.33
2018-11-14T04:04:47.756Z,81.02
2018-11-14T04:07:27.514Z,83.52
2018-11-14T04:12:48.405Z,68.72
2018-11-14T04:15:18.205Z,94.35
2018-11-14T04:17:48.068Z,88.22
2018-11-14T04:20:18.314Z,82.37
2018-11-14T04:22:51.836Z,83.90
2018-11-14T04:28:17.227Z,83.42
2018-11-14T04:31:00.841Z,74.07
2018-11-14T04:33:36.257Z,91.17
2018-11-14T04:36:15.400Z,91.75
2018-11-14T04:41:47.112Z,99.35
2018-11-14T04:44:17.067Z,97.12
2018-11-14T04:46:49.337Z,100.55
2018-11-14T04:49:17.968Z,111.22
2018-11-14T04:51:47.035Z,112.25
2018-11-14T04:54:18.044Z,123.72
2018-11-14T04:56:47.616Z,109.17
2018-11-14T04:59:17.559Z,110.42
2018-11-14T05:01:53.068Z,113.17
2018-11-14T05:04:26.534Z,111.65
2018-11-14T05:09:58.339Z,116.12
2018-11-14T05:12:38.478Z,112.15
2018-11-14T05:15:15.291Z,108.65
2018-11-14T05:17:47.102Z,98.37
2018-11-14T05:20:18.015Z,115.85
2018-11-14T05:26:40.293Z,122.20
2018-11-14T05:29:15.634Z,101.60
2018-11-14T05:31:44.605Z,108.10
2018-11-14T05:34:16.679Z,97.92
2018-11-14T05:37:06.204Z,105.43
2018-11-14T05:42:17.510Z,110.42
2018-11-14T05:45:56.281Z,109.22
2018-11-14T05:48:34.756Z,105.83
2018-11-14T05:51:16.990Z,103.65
2018-11-14T05:53:56.648Z,103.40
2018-11-14T05:57:20.320Z,104.72
2018-11-14T06:00:09.733Z,103.83
2018-11-14T06:02:38.778Z,120.82
2018-11-14T06:05:08.196Z,117.40
2018-11-14T06:07:37.635Z,110.70
2018-11-14T06:10:09.298Z,100.67
2018-11-14T06:12:39.065Z,117.28
2018-11-14T06:15:13.298Z,106.37
2018-11-14T06:17:45.255Z,116.67
2018-11-14T06:20:16.069Z,95.72
2018-11-14T06:22:49.127Z,105.97
2018-11-14T06:25:44.253Z,110.80
2018-11-14T06:28:14.220Z,103.20
2018-11-14T06:30:44.800Z,106.47
2018-11-14T06:33:18.051Z,107.35
2018-11-14T06:35:48.555Z,92.20
2018-11-14T06:38:17.972Z,106.17
2018-11-14T06:41:28.069Z,104.63
2018-11-14T06:43:57.457Z,92.22
2018-11-14T06:46:26.882Z,95.30
2018-11-14T06:48:59.527Z,97.27
2018-11-14T06:51:27.912Z,79.85
2018-11-14T06:53:58.403Z,97.42
2018-11-14T06:56:27.405Z,82.88
2018-11-14T06:58:56.667Z,91.08
2018-11-14T07:01:29.272Z,84.32
2018-11-14T07:03:58.077Z,91.60
2018-11-14T07:09:11.331Z,82.42
2018-11-14T07:11:40.388Z,95.53
2018-11-14T07:14:09.524Z,86.15
2018-11-14T07:16:39.845Z,86.50
2018-11-14T07:21:47.632Z,82.92
2018-11-14T07:24:18.841Z,83.60
2018-11-14T07:26:50.269Z,78.85
2018-11-14T07:29:19.252Z,74.97
2018-11-14T07:31:51.176Z,101.02
2018-11-14T07:34:21.948Z,88.05
2018-11-14T07:36:51.419Z,79.22
2018-11-14T07:39:21.075Z,88.62
2018-11-14T07:41:49.994Z,80.25
2018-11-14T07:44:20.343Z,88.27
2018-11-14T07:46:50.229Z,89.95
2018-11-14T07:49:20.127Z,85.83
2018-11-14T07:51:49.008Z,85.28
2018-11-14T07:54:19.809Z,81.50
2018-11-14T07:56:49.719Z,80.40
2018-11-14T07:59:19.713Z,80.75
2018-11-14T08:01:49.889Z,77.35
2018-11-14T08:04:20.290Z,81.20
2018-11-14T08:06:49.868Z,80.25
2018-11-14T08:09:20.397Z,79.15
2018-11-14T08:11:52.310Z,78.52
2018-11-14T08:14:20.639Z,80.35
2018-11-14T08:16:49.841Z,75.75
2018-11-14T08:19:20.558Z,82.72
2018-11-14T08:21:49.687Z,79.92
2018-11-14T08:24:20.959Z,76.97
2018-11-14T08:26:49.885Z,82.25
2018-11-14T08:29:22.895Z,81.92
2018-11-14T08:31:51.218Z,77.15
2018-11-14T08:34:19.756Z,79.40
2018-11-14T08:36:49.829Z,82.60
2018-11-14T08:39:20.074Z,70.83
2018-11-14T08:41:49.149Z,68.80
2018-11-14T08:44:19.188Z,81.02
2018-11-14T08:46:49.388Z,72.45
2018-11-14T08:49:21.024Z,76.25
2018-11-14T08:51:50.155Z,79.77
2018-11-14T08:54:19.395Z,72.10
2018-11-14T08:56:51.401Z,67.30
2018-11-14T08:59:19.932Z,76.87
2018-11-14T09:01:49.983Z,84.35
2018-11-14T09:04:20.588Z,73.37
2018-11-14T09:06:50.839Z,68.85
2018-11-14T09:09:19.420Z,89.20
2018-11-14T09:11:51.039Z,69.20
2018-11-14T09:14:20.717Z,75.80
2018-11-14T09:16:50.769Z,67.87
2018-11-14T09:19:19.838Z,73.80
2018-11-14T09:21:49.416Z,65.65
2018-11-14T09:24:18.750Z,73.33
2018-11-14T09:26:49.047Z,62.55
2018-11-14T09:29:21.253Z,69.77
2018-11-14T09:31:50.337Z,63.30
2018-11-14T09:34:20.938Z,60.90
2018-11-14T09:36:50.517Z,57.17
2018-11-14T09:39:20.682Z,66.37
2018-11-14T09:41:50.146Z,59.65
2018-11-14T09:44:20.461Z,66.00
2018-11-14T09:46:49.463Z,63.40
2018-11-14T09:49:20.344Z,63.58
2018-11-14T09:51:51.028Z,67.20
2018-11-14T09:54:20.493Z,52.75
2018-11-14T09:56:49.980Z,59.18
2018-11-14T09:59:21.898Z,64.12
2018-11-14T10:01:50.201Z,56.85
2018-11-14T10:04:19.717Z,53.38
2018-11-14T10:06:52.383Z,53.83
2018-11-14T10:09:22.617Z,46.77
2018-11-14T10:11:52.505Z,56.18
2018-11-14T10:14:21.216Z,48.80
2018-11-14T10:16:52.624Z,54.73
2018-11-14T10:19:21.898Z,49.73
2018-11-14T10:21:52.577Z,42.70
2018-11-14T10:24:21.947Z,51.28
2018-11-14T10:26:53.154Z,42.35
2018-11-14T10:29:22.538Z,42.33
2018-11-14T10:31:51.358Z,47.40
2018-11-14T10:34:21.393Z,46.68
2018-11-14T10:39:41.356Z,50.52
2018-11-14T10:42:11.966Z,45.92
2018-11-14T10:44:42.430Z,44.95
2018-11-14T10:47:12.029Z,44.95
2018-11-14T10:52:22.179Z,41.28
2018-11-14T10:54:58.965Z,48.13
2018-11-14T10:57:32.261Z,46.37
2018-11-14T11:00:10.542Z,48.13
2018-11-14T11:02:49.320Z,46.53
2018-11-14T11:05:27.604Z,42.58
2018-11-14T11:08:09.469Z,46.45
2018-11-14T11:10:53.069Z,39.23
2018-11-14T11:13:28.711Z,40.30
2018-11-14T11:16:08.896Z,42.50
2018-11-14T11:18:49.090Z,41.20
2018-11-14T11:21:24.411Z,42.73
2018-11-14T11:24:00.750Z,37.67
2018-11-14T11:39:51.547Z,72.42
2018-11-14T11:42:22.301Z,41.23
2018-11-14T11:44:51.592Z,42.98
2018-11-14T11:50:00.250Z,44.85
2018-11-14T11:55:11.670Z,48.55
2018-11-14T12:00:22.600Z,44.53
2018-11-14T12:02:53.211Z,42.95
2018-11-14T12:10:42.860Z,41.88
2018-11-14T12:13:11.764Z,48.48
2018-11-14T12:15:41.368Z,45.90
2018-11-14T12:18:11.782Z,52.27
2018-11-14T12:20:42.532Z,48.28
2018-11-14T12:23:11.754Z,54.05
2018-11-14T12:25:42.285Z,46.88
2018-11-14T12:28:12.614Z,50.00
2018-11-14T12:30:42.445Z,47.23
2018-11-14T12:33:11.448Z,52.38
2018-11-14T12:35:41.785Z,40.30
2018-11-14T12:38:22.905Z,51.80
2018-11-14T12:40:59.846Z,40.38
2018-11-14T12:43:39.788Z,47.58
2018-11-14T12:46:23.087Z,52.50
2018-11-14T12:51:43.129Z,46.65
2018-11-14T12:54:30.617Z,45.45
2018-11-14T12:57:02.829Z,48.45
2018-11-14T12:59:46.034Z,41.98
2018-11-14T13:05:02.700Z,52.60
2018-11-14T13:07:35.550Z,47.90
2018-11-14T13:10:11.796Z,49.55
2018-11-14T13:12:41.919Z,51.18
2018-11-14T13:17:51.765Z,55.33
2018-11-14T13:23:01.213Z,41.60
2018-11-14T13:25:30.029Z,44.03
2018-11-14T13:31:02.012Z,50.67
2018-11-14T13:34:19.127Z,49.27
2018-11-14T13:36:52.854Z,45.95
2018-11-14T13:39:22.705Z,50.17
2018-11-14T13:49:39.075Z,56.20
2018-11-14T15:55:20.118Z,34.75
2018-11-14T15:58:12.324Z,41.35
2018-11-14T16:02:11.930Z,40.03
2018-11-14T16:04:49.356Z,31.45
2018-11-14T16:15:53.099Z,30.43
2018-11-14T16:18:23.385Z,37.25
2018-11-14T16:23:41.160Z,37.73
2018-11-14T16:26:21.461Z,33.67
2018-11-14T16:29:00.106Z,30.95
2018-11-14T16:40:42.860Z,30.30
2018-11-14T16:43:31.686Z,31.07
2018-11-14T16:49:32.146Z,30.25
2018-11-14T16:52:09.535Z,29.20
2018-11-14T17:06:31.993Z,24.37
2018-11-14T17:20:24.521Z,37.60
2018-11-14T17:23:13.804Z,29.52
2018-11-14T17:28:53.693Z,25.15
2018-11-14T17:34:10.071Z,32.60
2018-11-14T17:39:34.982Z,25.65
2018-11-14T17:42:22.073Z,25.52
2018-11-14T17:44:53.405Z,24.87
2018-11-14T17:47:23.449Z,26.73
2018-11-14T17:49:59.768Z,23.90
2018-11-14T17:52:34.807Z,26.35
2018-11-14T18:14:37.148Z,24.37
2018-11-14T18:34:54.470Z,24.82
2018-11-14T19:22:48.933Z,32.50
2018-11-14T19:25:19.844Z,24.23
2018-11-14T19:27:59.845Z,22.90
2018-11-14T19:33:24.578Z,17.90
2018-11-14T19:36:12.214Z,21.62
2018-11-14T19:38:50.419Z,27.58
2018-11-14T19:41:23.421Z,28.98
2018-11-14T19:43:54.462Z,21.50
2018-11-14T19:46:24.063Z,23.07
2018-11-14T19:48:53.892Z,25.27
2018-11-14T19:51:24.057Z,26.27
2018-11-14T19:53:53.431Z,27.30
2018-11-14T19:56:24.108Z,27.02
2018-11-14T19:58:53.779Z,22.30
2018-11-14T20:01:32.055Z,23.10
2018-11-14T20:04:11.509Z,24.75
2018-11-14T20:06:41.761Z,24.52
2018-11-14T20:09:17.428Z,27.00
2018-11-14T20:11:49.905Z,21.02
2018-11-14T20:14:23.061Z,22.75
2018-11-14T20:16:52.476Z,16.57
2018-11-14T20:22:02.364Z,23.52
2018-11-14T20:24:32.984Z,28.77
2018-11-14T20:27:02.748Z,24.30
2018-11-14T20:29:33.256Z,24.52
2018-11-14T20:32:02.883Z,21.93
2018-11-14T20:34:33.765Z,25.23
2018-11-14T20:37:02.729Z,22.45
2018-11-14T20:39:33.019Z,24.85
2018-11-14T20:42:02.326Z,18.75
2018-11-14T20:44:31.377Z,29.37
2018-11-14T20:47:03.599Z,19.37
2018-11-14T20:49:34.211Z,23.98
2018-11-14T20:52:03.962Z,17.55
2018-11-14T20:54:33.536Z,21.10
2018-11-14T20:57:03.815Z,24.12
2018-11-14T21:02:12.678Z,24.20
2018-11-14T21:04:44.321Z,24.92
2018-11-14T21:07:20.499Z,26.45
2018-11-14T21:12:37.107Z,23.47
2018-11-14T21:15:11.199Z,27.32
2018-11-14T21:17:44.419Z,23.55
2018-11-14T21:22:52.592Z,22.02
2018-11-14T21:25:24.165Z,22.67
2018-11-14T21:27:53.979Z,27.07
2018-11-14T21:30:25.341Z,26.40
2018-11-14T21:32:53.770Z,25.65
2018-11-14T21:40:43.003Z,22.85
2018-11-14T21:43:12.698Z,30.45
2018-11-14T21:45:41.970Z,29.30
2018-11-14T21:48:20.604Z,24.77
2018-11-14T21:50:53.345Z,23.50
2018-11-14T21:53:23.833Z,22.75
2018-11-14T21:55:54.044Z,17.95
2018-11-14T21:58:24.300Z,23.57
2018-11-14T22:03:32.146Z,20.55
2018-11-14T22:06:02.642Z,18.85
2018-11-14T22:08:33.408Z,26.90
2018-11-14T22:11:11.264Z,35.83
2018-11-14T22:13:44.325Z,20.48
2018-11-14T22:16:13.432Z,28.75
2018-11-14T22:18:44.296Z,21.35
2018-11-14T22:21:13.975Z,22.15
2018-11-14T22:23:43.614Z,17.25
2018-11-14T22:28:52.506Z,19.45
2018-11-14T22:31:23.224Z,19.90
2018-11-14T22:34:00.162Z,19.12
2018-11-14T22:36:34.694Z,24.20
2018-11-14T22:39:04.600Z,17.42
2018-11-14T22:44:12.597Z,23.18
2018-11-14T22:46:43.726Z,25.50
2018-11-14T22:49:12.318Z,28.52
2018-11-14T22:51:42.790Z,29.10
2018-11-14T22:54:13.850Z,18.25
2018-11-14T22:56:42.938Z,23.32
2018-11-14T22:59:14.047Z,17.40
2018-11-14T23:01:43.051Z,23.25
2018-11-14T23:04:13.980Z,18.50
2018-11-14T23:06:43.658Z,19.27
2018-11-14T23:09:14.492Z,20.23
2018-11-14T23:11:43.656Z,22.05
2018-11-14T23:14:13.256Z,15.85
2018-11-14T23:16:44.375Z,23.65
2018-11-14T23:19:14.702Z,19.50
2018-11-14T23:24:23.299Z,15.80
2018-11-14T23:26:54.788Z,15.15
2018-11-14T23:29:30.761Z,15.70
2018-11-14T23:32:02.882Z,22.62
2018-11-14T23:40:25.073Z,13.55
2018-11-14T23:43:00.970Z,15.58
2018-11-14T23:48:21.955Z,15.08
2018-11-14T23:54:00.945Z,21.15
2018-11-14T23:56:34.945Z,17.75
2018-11-14T23:59:04.325Z,21.15
